Time;durP1;ratioP1;P1;durP2;ratioP2;P2;SDS_P1;SDS_P2;PMS_P1;PMS_P2;Temp;Humidity;BMP_temperature;BMP_pressure;BME280_temperature;BME280_humidity;BME280_pressure;Samples;Min_cycle;Max_cycle;Signal;HPM_P1;HPM_P2
2024/03/27 00:01:46;;;;;;;5.30;4.80;;;10.00;99.90;;;;;;5025604;28;20279;-72
2024/03/27 00:04:11;;;;;;;5.63;5.13;;;10.00;99.90;;;;;;5013809;28;20195;-73
2024/03/27 00:06:37;;;;;;;5.20;4.80;;;10.10;99.90;;;;;;5026329;28;20203;-72
2024/03/27 00:09:03;;;;;;;5.37;4.87;;;10.10;99.90;;;;;;5032537;28;20179;-72
2024/03/27 00:11:29;;;;;;;6.70;5.57;;;10.10;99.90;;;;;;5027075;28;20208;-72
2024/03/27 00:13:54;;;;;;;5.90;5.33;;;10.10;99.90;;;;;;5015893;28;20176;-72
2024/03/27 00:16:20;;;;;;;6.43;5.50;;;10.10;99.90;;;;;;5016313;28;20282;-72
2024/03/27 00:18:46;;;;;;;7.50;5.37;;;10.10;99.90;;;;;;5032216;28;20681;-72
2024/03/27 00:21:11;;;;;;;6.37;5.57;;;10.10;99.90;;;;;;5020236;28;20218;-72
2024/03/27 00:23:37;;;;;;;5.20;4.70;;;10.10;99.90;;;;;;5022128;28;20176;-73
2024/03/27 00:26:04;;;;;;;6.93;5.40;;;10.10;99.90;;;;;;5012518;28;20208;-72
2024/03/27 00:28:30;;;;;;;6.23;4.70;;;10.10;99.90;;;;;;5003803;28;20191;-72
2024/03/27 00:30:56;;;;;;;6.40;5.80;;;10.10;99.90;;;;;;5031301;28;20609;-72
2024/03/27 00:33:22;;;;;;;5.43;4.90;;;10.10;99.90;;;;;;5011666;28;20176;-72
2024/03/27 00:35:58;;;;;;;5.20;4.70;;;10.10;99.90;;;;;;5019222;28;20268;-72
2024/03/27 00:38:24;;;;;;;5.40;4.90;;;10.00;99.90;;;;;;5017892;28;20175;-72
2024/03/27 00:40:50;;;;;;;5.80;5.00;;;10.00;99.90;;;;;;5032107;28;20578;-72
2024/03/27 00:43:16;;;;;;;6.30;4.77;;;10.00;99.90;;;;;;5031737;28;20176;-72
2024/03/27 00:45:43;;;;;;;5.30;4.80;;;10.00;99.90;;;;;;5025389;28;20204;-72
2024/03/27 00:48:08;;;;;;;5.30;4.90;;;10.00;99.90;;;;;;5030850;28;20179;-72
2024/03/27 00:50:34;;;;;;;5.57;5.07;;;10.00;99.90;;;;;;5027448;28;20176;-72
2024/03/27 00:53:01;;;;;;;6.00;5.20;;;10.00;99.90;;;;;;5026839;28;20204;-72
2024/03/27 00:55:26;;;;;;;6.70;4.93;;;10.00;99.90;;;;;;5033412;28;20408;-73
2024/03/27 00:57:52;;;;;;;5.13;4.53;;;10.00;99.90;;;;;;5032236;28;20175;-73
2024/03/27 01:00:18;;;;;;;5.70;4.67;;;10.00;99.90;;;;;;5024703;28;20207;-72
2024/03/27 01:02:45;;;;;;;6.33;4.70;;;10.00;99.90;;;;;;5033624;28;20198;-72
2024/03/27 01:05:11;;;;;;;5.53;5.13;;;10.00;99.90;;;;;;5033186;28;20187;-72
2024/03/27 01:07:37;;;;;;;7.30;5.17;;;10.00;99.90;;;;;;5033869;28;20171;-72
2024/03/27 01:10:05;;;;;;;5.13;4.63;;;10.10;99.90;;;;;;5032529;28;20175;-72
2024/03/27 01:12:30;;;;;;;4.60;4.20;;;10.10;99.90;;;;;;5033622;28;20222;-72
2024/03/27 01:14:56;;;;;;;5.60;5.20;;;10.10;99.90;;;;;;5027606;28;20191;-72
2024/03/27 01:17:22;;;;;;;4.90;4.50;;;10.10;99.90;;;;;;5031479;28;20545;-72
2024/03/27 01:19:47;;;;;;;5.83;4.87;;;10.10;99.90;;;;;;5032251;28;20176;-72
2024/03/27 01:22:13;;;;;;;5.20;4.70;;;10.10;99.90;;;;;;5031830;28;20196;-72
2024/03/27 01:24:38;;;;;;;5.83;4.93;;;10.10;99.90;;;;;;5032188;28;20385;-72
2024/03/27 01:27:04;;;;;;;5.27;4.83;;;10.10;99.90;;;;;;5033133;28;20203;-73
2024/03/27 01:29:30;;;;;;;6.73;4.50;;;10.10;99.90;;;;;;5026328;28;20171;-73
2024/03/27 01:31:56;;;;;;;5.30;4.80;;;10.00;99.90;;;;;;5028503;28;20669;-72
2024/03/27 01:34:22;;;;;;;4.90;4.50;;;10.00;99.90;;;;;;5033930;28;20683;-73
2024/03/27 01:36:47;;;;;;;6.00;5.37;;;10.00;99.90;;;;;;5024387;28;20760;-72
2024/03/27 01:39:14;;;;;;;5.20;4.80;;;10.00;99.90;;;;;;5021995;28;20266;-71
2024/03/27 01:41:39;;;;;;;6.47;5.70;;;10.00;99.90;;;;;;5030829;28;20234;-72
2024/03/27 01:44:05;;;;;;;6.30;5.70;;;10.00;99.90;;;;;;5018094;28;20215;-72
2024/03/27 01:46:31;;;;;;;7.10;5.57;;;10.00;99.90;;;;;;5027851;28;20556;-72
2024/03/27 01:48:57;;;;;;;6.20;5.67;;;10.00;99.90;;;;;;5018548;28;20211;-72
2024/03/27 01:51:23;;;;;;;7.47;5.57;;;10.00;99.90;;;;;;5018854;28;20611;-72
2024/03/27 01:53:50;;;;;;;8.57;5.13;;;9.90;99.90;;;;;;5019490;28;20183;-72
2024/03/27 01:56:15;;;;;;;6.70;5.27;;;9.90;99.90;;;;;;5017634;28;20211;-72
2024/03/27 01:58:42;;;;;;;6.00;5.50;;;9.90;99.90;;;;;;5019394;28;20254;-72
2024/03/27 02:01:08;;;;;;;6.63;5.93;;;9.90;99.90;;;;;;5012944;28;20571;-72
2024/03/27 02:03:34;;;;;;;8.67;5.93;;;9.90;99.90;;;;;;5005625;28;20179;-72
2024/03/27 02:06:00;;;;;;;6.90;6.03;;;9.80;99.90;;;;;;5034525;28;20410;-72
2024/03/27 02:08:26;;;;;;;7.77;5.97;;;9.80;99.90;;;;;;5030699;28;20176;-73
2024/03/27 02:10:52;;;;;;;6.47;5.57;;;9.80;99.90;;;;;;5014764;28;20187;-72
2024/03/27 02:13:17;;;;;;;6.83;5.87;;;9.80;99.90;;;;;;5016953;28;20614;-72
2024/03/27 02:15:43;;;;;;;6.20;5.63;;;9.70;99.90;;;;;;5034852;28;20179;-72
2024/03/27 02:18:08;;;;;;;6.23;5.63;;;9.70;99.90;;;;;;5014882;28;20188;-72
2024/03/27 02:20:34;;;;;;;6.50;5.90;;;9.70;99.90;;;;;;5013537;28;20224;-72
2024/03/27 02:23:08;;;;;;;7.00;6.30;;;9.70;99.90;;;;;;5014976;28;20581;-73
2024/03/27 02:25:48;;;;;;;7.57;5.57;;;9.70;99.90;;;;;;5029738;28;20266;-72
2024/03/27 02:28:16;;;;;;;5.43;4.93;;;9.70;99.90;;;;;;5033209;28;20186;-72
2024/03/27 02:30:45;;;;;;;4.97;4.57;;;9.70;99.90;;;;;;5026349;28;20259;-73
2024/03/27 02:33:10;;;;;;;9.00;4.60;;;9.70;99.90;;;;;;5029273;28;20207;-72
2024/03/27 02:35:36;;;;;;;7.23;5.17;;;9.70;99.90;;;;;;5025748;28;20180;-72
2024/03/27 02:38:02;;;;;;;5.97;5.27;;;9.80;99.90;;;;;;5031261;28;20187;-72
2024/03/27 02:40:27;;;;;;;8.57;5.70;;;9.80;99.90;;;;;;5034034;28;20187;-72
2024/03/27 02:42:53;;;;;;;6.43;5.80;;;9.80;99.90;;;;;;5026665;28;20203;-72
2024/03/27 02:45:18;;;;;;;6.67;5.57;;;9.80;99.90;;;;;;5022385;28;20192;-72
2024/03/27 02:47:44;;;;;;;7.10;6.27;;;9.80;99.90;;;;;;5028605;28;20604;-72
2024/03/27 02:50:09;;;;;;;7.27;6.37;;;9.80;99.90;;;;;;5020691;28;20184;-72
2024/03/27 02:52:35;;;;;;;6.37;5.77;;;9.80;99.90;;;;;;5012636;28;20210;-72
2024/03/27 02:55:01;;;;;;;6.70;6.10;;;9.90;99.90;;;;;;5025343;28;20189;-72
2024/03/27 02:57:26;;;;;;;8.10;6.27;;;9.90;99.90;;;;;;5025627;28;20675;-73
2024/03/27 02:59:52;;;;;;;7.27;6.43;;;9.90;99.90;;;;;;5023059;28;20198;-72
2024/03/27 03:02:17;;;;;;;6.73;6.17;;;9.90;99.90;;;;;;5033475;28;20200;-72
2024/03/27 03:04:43;;;;;;;7.20;6.50;;;9.90;99.90;;;;;;5039714;28;20175;-72
2024/03/27 03:07:08;;;;;;;7.87;6.07;;;9.80;99.90;;;;;;5032281;28;20290;-72
2024/03/27 03:09:34;;;;;;;7.20;6.50;;;9.80;99.90;;;;;;5038300;28;20209;-72
2024/03/27 03:11:59;;;;;;;6.93;6.23;;;9.90;99.90;;;;;;5022354;28;20208;-72
2024/03/27 03:14:25;;;;;;;7.17;6.47;;;9.90;99.90;;;;;;5025335;28;20183;-71
2024/03/27 03:16:51;;;;;;;6.57;5.90;;;9.90;99.90;;;;;;5032383;28;20215;-71
2024/03/27 03:19:16;;;;;;;8.63;5.43;;;9.90;99.90;;;;;;5018883;28;20189;-72
2024/03/27 03:21:42;;;;;;;6.50;5.47;;;9.90;99.90;;;;;;5033339;28;20680;-72
2024/03/27 03:24:08;;;;;;;7.30;5.40;;;9.90;99.90;;;;;;5025313;28;20664;-72
2024/03/27 03:26:34;;;;;;;6.33;5.10;;;9.90;99.90;;;;;;5033567;28;20345;-72
2024/03/27 03:29:00;;;;;;;5.70;5.10;;;10.00;99.90;;;;;;5033651;28;20198;-72
2024/03/27 03:31:26;;;;;;;5.47;4.87;;;9.90;99.90;;;;;;5033119;28;20192;-71
2024/03/27 03:33:51;;;;;;;5.70;5.10;;;9.90;99.90;;;;;;5033342;28;20187;-71
2024/03/27 03:36:17;;;;;;;6.67;5.13;;;9.90;99.90;;;;;;5032851;28;20680;-71
2024/03/27 03:38:42;;;;;;;5.17;4.50;;;9.90;99.90;;;;;;5032772;28;20238;-72
2024/03/27 03:41:10;;;;;;;7.67;4.87;;;9.90;99.90;;;;;;5027587;28;20199;-72
2024/03/27 03:43:36;;;;;;;5.80;5.20;;;9.90;99.90;;;;;;5032819;28;20230;-72
2024/03/27 03:46:02;;;;;;;6.83;4.67;;;10.00;99.90;;;;;;5032611;28;20207;-72
2024/03/27 03:48:28;;;;;;;6.93;4.73;;;9.90;99.90;;;;;;5032942;28;20179;-72
2024/03/27 03:50:53;;;;;;;5.43;4.97;;;10.00;99.90;;;;;;5025896;28;20530;-72
2024/03/27 03:53:19;;;;;;;4.63;4.23;;;10.00;99.90;;;;;;5023190;28;20188;-72
2024/03/27 03:55:45;;;;;;;5.37;4.87;;;10.00;99.90;;;;;;5026415;28;20176;-72
2024/03/27 03:58:12;;;;;;;6.00;5.10;;;10.00;99.90;;;;;;5020516;28;20188;-72
2024/03/27 04:00:38;;;;;;;7.57;5.20;;;10.00;99.90;;;;;;5028051;28;20173;-72
2024/03/27 04:03:04;;;;;;;5.47;4.97;;;10.10;99.90;;;;;;5012853;28;20290;-72
2024/03/27 04:05:30;;;;;;;7.13;4.80;;;10.10;99.90;;;;;;5024476;28;20203;-72
2024/03/27 04:07:56;;;;;;;5.57;4.80;;;10.10;99.90;;;;;;5024519;28;20188;-72
2024/03/27 04:10:22;;;;;;;7.80;4.80;;;10.10;99.90;;;;;;5020721;28;20183;-72
2024/03/27 04:12:47;;;;;;;7.10;4.60;;;10.10;99.90;;;;;;5018328;28;20242;-72
2024/03/27 04:15:14;;;;;;;5.20;4.67;;;10.10;99.90;;;;;;5013179;28;20185;-73
2024/03/27 04:17:40;;;;;;;5.47;4.90;;;10.10;99.90;;;;;;5026786;28;20558;-71
2024/03/27 04:20:10;;;;;;;5.47;4.97;;;10.10;99.90;;;;;;5030852;28;20180;-72
2024/03/27 04:22:39;;;;;;;6.33;4.90;;;10.00;99.90;;;;;;5032178;28;20203;-72
2024/03/27 04:25:05;;;;;;;5.50;4.90;;;10.10;99.90;;;;;;5032004;28;20257;-72
2024/03/27 04:27:31;;;;;;;5.67;5.20;;;10.00;99.90;;;;;;5026058;28;20409;-72
2024/03/27 04:29:57;;;;;;;6.50;5.50;;;10.00;99.90;;;;;;5032093;28;21004;-71
2024/03/27 04:32:24;;;;;;;6.07;5.30;;;10.00;99.90;;;;;;5031490;28;20211;-72
2024/03/27 04:34:49;;;;;;;5.63;5.13;;;10.00;99.90;;;;;;5025686;28;20184;-72
2024/03/27 04:37:15;;;;;;;5.53;4.90;;;10.00;99.90;;;;;;5032063;28;20525;-71
2024/03/27 04:39:42;;;;;;;6.43;5.10;;;10.00;99.90;;;;;;5027267;28;20658;-72
2024/03/27 04:42:10;;;;;;;10.00;5.90;;;10.00;99.90;;;;;;5020951;28;20203;-71
2024/03/27 04:44:40;;;;;;;6.20;5.60;;;10.00;99.90;;;;;;5032610;28;20176;-72
2024/03/27 04:47:06;;;;;;;5.87;5.13;;;10.00;99.90;;;;;;5031694;28;20218;-71
2024/03/27 04:49:31;;;;;;;8.70;5.20;;;10.00;99.90;;;;;;5023965;28;20266;-72
2024/03/27 04:51:57;;;;;;;5.10;4.70;;;10.00;99.90;;;;;;5008204;28;20790;-72
2024/03/27 04:54:22;;;;;;;6.10;5.50;;;10.00;99.90;;;;;;5029439;28;20262;-72
2024/03/27 04:56:48;;;;;;;6.77;5.93;;;10.00;99.90;;;;;;5017742;28;20186;-72
2024/03/27 04:59:14;;;;;;;6.73;6.10;;;10.00;99.90;;;;;;5020007;28;20574;-72
2024/03/27 05:01:39;;;;;;;6.13;5.63;;;10.10;99.90;;;;;;5011755;28;20208;-72
2024/03/27 05:04:06;;;;;;;7.13;5.77;;;10.10;99.90;;;;;;5028293;28;20275;-72
2024/03/27 05:06:38;;;;;;;6.83;6.03;;;10.10;99.90;;;;;;5013038;28;20353;-72
2024/03/27 05:09:09;;;;;;;7.17;6.00;;;10.10;99.90;;;;;;5019937;28;20184;-72
2024/03/27 05:11:35;;;;;;;8.50;6.97;;;10.10;99.90;;;;;;5017073;28;20664;-72
2024/03/27 05:14:01;;;;;;;7.57;6.87;;;10.20;99.90;;;;;;5031935;28;20282;-71
2024/03/27 05:16:27;;;;;;;7.83;7.03;;;10.20;99.90;;;;;;5030963;28;20305;-72
2024/03/27 05:18:52;;;;;;;8.37;6.60;;;10.20;99.90;;;;;;5031286;28;20183;-72
2024/03/27 05:21:18;;;;;;;7.70;6.23;;;10.20;99.90;;;;;;5031086;28;20207;-72
2024/03/27 05:23:44;;;;;;;8.93;7.20;;;10.20;99.90;;;;;;5017845;28;20583;-72
2024/03/27 05:26:09;;;;;;;8.10;6.50;;;10.30;99.90;;;;;;5016458;28;20207;-72
2024/03/27 05:28:35;;;;;;;7.00;6.30;;;10.30;99.90;;;;;;5031338;28;20182;-72
2024/03/27 05:31:00;;;;;;;7.50;6.30;;;10.40;99.90;;;;;;5031328;28;20172;-72
2024/03/27 05:33:26;;;;;;;7.83;6.30;;;10.40;99.90;;;;;;5031394;28;20175;-72
2024/03/27 05:35:51;;;;;;;8.47;6.57;;;10.40;99.90;;;;;;5030981;28;20229;-72
2024/03/27 05:38:17;;;;;;;6.80;6.10;;;10.50;99.90;;;;;;5021617;28;20216;-72
2024/03/27 05:40:43;;;;;;;7.30;6.60;;;10.50;99.90;;;;;;5019012;28;20188;-72
2024/03/27 05:43:08;;;;;;;8.93;6.57;;;10.50;99.90;;;;;;5019542;28;20273;-72
2024/03/27 05:45:34;;;;;;;10.47;5.83;;;10.50;99.90;;;;;;5030756;28;20195;-72
2024/03/27 05:47:59;;;;;;;6.83;6.10;;;10.60;99.90;;;;;;5030770;28;20601;-72
2024/03/27 05:50:25;;;;;;;7.13;6.43;;;10.60;99.90;;;;;;5031330;28;20183;-72
2024/03/27 05:52:50;;;;;;;6.13;5.53;;;10.60;99.90;;;;;;5030904;28;20252;-72
2024/03/27 05:55:16;;;;;;;6.43;5.27;;;10.60;99.90;;;;;;5024758;28;20560;-72
2024/03/27 05:57:41;;;;;;;8.67;6.07;;;10.70;99.90;;;;;;5030852;28;20176;-72
2024/03/27 06:00:09;;;;;;;8.50;6.03;;;10.70;99.90;;;;;;5027572;28;20211;-72
2024/03/27 06:02:35;;;;;;;7.37;5.70;;;10.70;99.90;;;;;;5031049;28;20203;-73
2024/03/27 06:05:01;;;;;;;6.50;5.90;;;10.80;99.90;;;;;;5031486;28;20180;-72
2024/03/27 06:07:26;;;;;;;7.33;6.23;;;10.80;99.90;;;;;;5030566;28;20724;-72
2024/03/27 06:09:52;;;;;;;6.93;6.30;;;10.90;99.90;;;;;;5025613;28;20212;-74
2024/03/27 06:12:18;;;;;;;7.30;6.10;;;10.90;99.90;;;;;;5028051;28;20664;-72
2024/03/27 06:14:43;;;;;;;6.97;5.90;;;10.90;99.90;;;;;;5030604;28;20180;-72
2024/03/27 06:17:09;;;;;;;5.63;4.90;;;11.00;99.90;;;;;;5030727;28;20188;-72
2024/03/27 06:19:35;;;;;;;8.50;5.53;;;11.10;99.90;;;;;;5025252;28;20218;-72
2024/03/27 06:22:01;;;;;;;5.67;5.17;;;11.10;99.90;;;;;;5030677;28;20657;-72
2024/03/27 06:24:26;;;;;;;7.80;5.67;;;11.10;99.90;;;;;;5030415;28;20211;-72
2024/03/27 06:26:52;;;;;;;8.27;6.23;;;11.10;99.90;;;;;;5025947;28;20635;-72
2024/03/27 06:29:17;;;;;;;8.20;7.00;;;11.20;99.90;;;;;;5027882;28;20176;-72
2024/03/27 06:31:43;;;;;;;6.23;5.63;;;11.20;99.90;;;;;;5029201;28;20744;-72
2024/03/27 06:34:09;;;;;;;6.17;5.57;;;11.20;99.90;;;;;;5022546;28;20190;-71
2024/03/27 06:36:34;;;;;;;7.40;6.70;;;11.30;99.90;;;;;;5024482;28;20190;-71
2024/03/27 06:39:00;;;;;;;8.63;5.93;;;11.30;99.90;;;;;;5029174;28;20270;-72
2024/03/27 06:41:27;;;;;;;7.60;6.80;;;11.40;99.90;;;;;;5033617;28;20191;-72
2024/03/27 06:43:53;;;;;;;8.47;6.63;;;11.40;99.90;;;;;;5025348;28;20544;-72
2024/03/27 06:46:20;;;;;;;6.70;6.00;;;11.50;99.90;;;;;;5013652;28;20294;-71
2024/03/27 06:48:56;;;;;;;6.23;5.40;;;11.50;99.90;;;;;;5033954;28;20543;-71
2024/03/27 06:51:22;;;;;;;7.03;5.63;;;11.60;99.90;;;;;;5017345;28;20204;-70
2024/03/27 06:53:48;;;;;;;8.03;4.97;;;11.60;99.90;;;;;;5033328;28;20669;-70
2024/03/27 06:56:14;;;;;;;10.03;4.80;;;11.60;99.90;;;;;;5021379;28;20200;-71
2024/03/27 06:58:39;;;;;;;4.70;4.23;;;11.60;99.90;;;;;;5025746;28;20190;-71
2024/03/27 07:01:05;;;;;;;7.60;4.83;;;11.70;99.90;;;;;;5018535;28;20180;-71
2024/03/27 07:03:33;;;;;;;5.77;4.00;;;11.60;99.90;;;;;;5024712;28;20207;-71
2024/03/27 07:05:58;;;;;;;4.73;4.00;;;11.60;99.90;;;;;;5031025;28;20290;-71
2024/03/27 07:08:24;;;;;;;4.80;3.83;;;11.60;99.90;;;;;;5031490;28;20270;-70
2024/03/27 07:10:59;;;;;;;5.37;4.30;;;11.60;99.90;;;;;;5027679;28;20645;-71
2024/03/27 07:13:25;;;;;;;6.90;4.20;;;11.70;99.90;;;;;;5020113;28;20183;-72
2024/03/27 07:15:54;;;;;;;4.27;3.97;;;11.60;99.90;;;;;;5035865;28;20209;-71
2024/03/27 07:18:20;;;;;;;5.63;3.87;;;11.60;99.90;;;;;;5033538;28;20263;-71
2024/03/27 07:20:56;;;;;;;4.97;3.97;;;11.70;99.90;;;;;;5033298;28;20804;-71
2024/03/27 07:23:22;;;;;;;5.83;4.60;;;11.70;99.90;;;;;;5033062;28;20197;-70
2024/03/27 07:25:48;;;;;;;4.93;4.43;;;11.70;99.90;;;;;;5007048;28;20744;-71
2024/03/27 07:28:14;;;;;;;4.13;3.83;;;11.70;99.90;;;;;;5029496;28;20195;-71
2024/03/27 07:30:40;;;;;;;5.63;4.60;;;11.80;99.90;;;;;;5032784;28;20179;-72
2024/03/27 07:33:05;;;;;;;4.90;4.00;;;11.80;99.90;;;;;;5032981;28;20204;-72
2024/03/27 07:35:31;;;;;;;4.73;4.40;;;11.90;99.90;;;;;;5005203;28;20271;-72
2024/03/27 07:37:58;;;;;;;6.73;4.87;;;12.00;99.90;;;;;;5026900;28;20561;-72
2024/03/27 07:40:27;;;;;;;10.17;4.33;;;12.10;99.90;;;;;;5023062;28;20183;-72
2024/03/27 07:42:53;;;;;;;8.17;6.17;;;12.20;99.90;;;;;;5018417;28;20245;-72
2024/03/27 07:45:19;;;;;;;5.77;4.57;;;12.20;99.90;;;;;;5022634;28;20287;-71
2024/03/27 07:47:45;;;;;;;6.73;4.37;;;12.10;99.90;;;;;;5032728;28;20219;-72
2024/03/27 07:50:12;;;;;;;4.03;3.73;;;12.20;99.90;;;;;;5017179;28;20186;-71
2024/03/27 07:52:38;;;;;;;5.00;4.03;;;12.10;99.90;;;;;;5031985;28;20203;-71
2024/03/27 07:55:03;;;;;;;3.90;3.60;;;12.20;99.90;;;;;;5032606;28;20175;-71
2024/03/27 07:57:29;;;;;;;6.33;3.00;;;12.20;99.90;;;;;;5032101;28;20187;-72
2024/03/27 07:59:55;;;;;;;7.20;3.30;;;12.30;99.90;;;;;;5030425;28;20677;-71
2024/03/27 08:02:20;;;;;;;3.80;3.50;;;12.40;99.90;;;;;;5015199;28;20235;-70
2024/03/27 08:04:46;;;;;;;2.80;2.60;;;12.50;99.90;;;;;;5019778;28;20180;-72
2024/03/27 08:07:11;;;;;;;3.50;3.20;;;12.60;99.90;;;;;;5027977;28;20579;-71
2024/03/27 08:09:37;;;;;;;4.67;4.07;;;12.70;99.90;;;;;;5032121;28;20483;-71
2024/03/27 08:12:02;;;;;;;4.70;4.20;;;12.90;99.90;;;;;;5029870;28;20226;-71
2024/03/27 08:14:28;;;;;;;5.27;3.80;;;13.00;99.90;;;;;;5021896;28;20665;-71
2024/03/27 08:16:54;;;;;;;3.80;3.20;;;13.00;99.90;;;;;;5031855;28;20192;-72
2024/03/27 08:19:19;;;;;;;3.97;3.67;;;13.00;99.90;;;;;;5024001;28;20275;-71
2024/03/27 08:21:45;;;;;;;4.13;3.30;;;13.00;99.90;;;;;;5024329;28;20204;-71
2024/03/27 08:24:11;;;;;;;3.43;3.00;;;13.00;99.90;;;;;;5026461;28;20211;-72
2024/03/27 08:26:36;;;;;;;4.00;3.27;;;13.20;99.90;;;;;;5031957;28;20215;-71
2024/03/27 08:29:03;;;;;;;3.30;3.00;;;13.30;99.90;;;;;;5034141;28;20226;-71
2024/03/27 08:31:29;;;;;;;3.53;3.23;;;13.50;99.90;;;;;;5032441;28;20199;-71
2024/03/27 08:33:54;;;;;;;3.60;2.90;;;13.40;99.90;;;;;;5031795;28;20195;-71
2024/03/27 08:36:20;;;;;;;3.63;3.33;;;13.40;99.90;;;;;;5018514;28;20680;-71
2024/03/27 08:38:46;;;;;;;4.17;3.47;;;13.40;99.90;;;;;;5024729;28;20194;-71
2024/03/27 08:41:11;;;;;;;2.90;2.70;;;13.50;99.90;;;;;;5031890;28;20203;-71
2024/03/27 08:43:37;;;;;;;3.00;2.80;;;13.50;99.90;;;;;;5031838;28;20262;-71
2024/03/27 08:46:04;;;;;;;4.23;3.30;;;13.60;99.90;;;;;;5019270;28;20680;-71
2024/03/27 08:48:30;;;;;;;2.80;2.60;;;13.70;99.90;;;;;;5025818;28;20205;-71
2024/03/27 08:50:55;;;;;;;4.60;3.00;;;13.80;99.90;;;;;;5017883;28;20190;-71
2024/03/27 08:53:21;;;;;;;3.20;3.00;;;13.70;99.90;;;;;;5029239;28;20179;-72
2024/03/27 08:55:48;;;;;;;3.13;2.93;;;13.60;99.90;;;;;;5031319;28;20179;-71
2024/03/27 08:58:13;;;;;;;3.00;2.80;;;13.70;99.90;;;;;;5031942;28;20317;-72
2024/03/27 09:00:40;;;;;;;3.20;2.93;;;13.80;99.90;;;;;;5020466;28;20593;-71
2024/03/27 09:03:06;;;;;;;6.57;2.90;;;13.80;99.90;;;;;;5026321;28;20196;-72
2024/03/27 09:05:32;;;;;;;3.07;2.87;;;13.80;99.90;;;;;;5014356;28;20255;-71
2024/03/27 09:07:58;;;;;;;3.27;3.00;;;13.80;99.90;;;;;;5031192;28;20214;-71
2024/03/27 09:10:25;;;;;;;3.53;3.20;;;13.60;99.90;;;;;;5031229;28;20293;-71
2024/03/27 09:12:50;;;;;;;3.97;3.70;;;13.50;99.90;;;;;;5031195;28;20215;-72
2024/03/27 09:15:16;;;;;;;3.90;3.00;;;13.20;99.90;;;;;;5015557;28;20184;-71
2024/03/27 09:17:42;;;;;;;3.60;3.30;;;13.00;99.90;;;;;;5030860;28;20649;-72
2024/03/27 09:20:09;;;;;;;3.70;3.40;;;12.80;99.90;;;;;;5031550;28;20207;-72
2024/03/27 09:22:35;;;;;;;6.27;4.13;;;12.70;99.90;;;;;;5031314;28;20291;-72
2024/03/27 09:25:01;;;;;;;4.10;3.70;;;12.60;99.90;;;;;;5032274;28;20350;-71
2024/03/27 09:27:27;;;;;;;4.20;3.90;;;12.40;99.90;;;;;;5030888;28;20241;-72
2024/03/27 09:29:53;;;;;;;3.63;3.43;;;12.40;99.90;;;;;;5031522;28;20174;-72
2024/03/27 09:32:20;;;;;;;3.53;3.23;;;12.30;99.90;;;;;;5034034;28;20294;-74
2024/03/27 09:34:47;;;;;;;4.33;4.03;;;12.10;99.90;;;;;;5033709;28;20724;-74
2024/03/27 09:37:13;;;;;;;4.47;4.10;;;11.80;99.90;;;;;;5031363;28;20184;-73
2024/03/27 09:39:39;;;;;;;3.97;3.67;;;11.70;99.90;;;;;;5032941;28;20218;-74
2024/03/27 09:42:05;;;;;;;3.93;3.63;;;11.60;99.90;;;;;;5032513;28;20681;-74
2024/03/27 09:44:31;;;;;;;3.87;3.57;;;11.50;99.90;;;;;;5031909;28;20711;-73
2024/03/27 09:47:01;;;;;;;4.37;3.97;;;11.40;99.90;;;;;;5031615;28;20203;-75
2024/03/27 09:49:30;;;;;;;4.33;4.03;;;11.40;99.90;;;;;;5031584;28;20179;-74
2024/03/27 09:51:58;;;;;;;4.53;4.13;;;11.40;99.90;;;;;;5031763;28;20204;-74
2024/03/27 09:54:28;;;;;;;4.50;4.10;;;11.40;99.90;;;;;;5017731;28;20246;-73
2024/03/27 09:56:54;;;;;;;4.50;4.20;;;11.30;99.90;;;;;;5030883;28;20184;-74
2024/03/27 09:59:20;;;;;;;5.17;4.77;;;11.20;99.90;;;;;;5027603;28;20187;-74
2024/03/27 10:01:56;;;;;;;4.80;4.50;;;11.10;99.90;;;;;;5020466;28;20196;-75
2024/03/27 10:04:21;;;;;;;5.30;4.80;;;11.00;99.90;;;;;;5017612;28;20184;-74
2024/03/27 10:06:47;;;;;;;5.20;4.70;;;11.00;99.90;;;;;;5025064;28;20233;-73
2024/03/27 10:09:12;;;;;;;5.17;4.77;;;11.00;99.90;;;;;;5028177;28;20210;-74
2024/03/27 10:11:39;;;;;;;5.07;4.63;;;11.00;99.90;;;;;;5019636;28;20303;-75
2024/03/27 10:14:05;;;;;;;5.37;4.87;;;10.90;99.90;;;;;;5028549;28;20234;-74
2024/03/27 10:16:30;;;;;;;5.40;5.00;;;10.90;99.90;;;;;;5032890;28;20179;-73
2024/03/27 10:18:56;;;;;;;5.13;4.63;;;11.00;99.90;;;;;;5025919;28;20226;-74
2024/03/27 10:21:21;;;;;;;5.27;4.87;;;11.10;99.90;;;;;;5027310;28;20795;-74
2024/03/27 10:23:47;;;;;;;5.80;5.23;;;11.00;99.90;;;;;;5032646;28;20498;-74
2024/03/27 10:26:12;;;;;;;5.87;5.37;;;10.90;99.90;;;;;;5024085;28;20274;-72
2024/03/27 10:28:39;;;;;;;6.13;5.63;;;10.80;99.90;;;;;;5015859;28;20645;-73
2024/03/27 10:31:04;;;;;;;5.90;5.40;;;10.60;99.90;;;;;;5023390;28;20172;-73
2024/03/27 10:33:30;;;;;;;6.30;5.80;;;10.50;99.90;;;;;;5028484;28;20226;-74
2024/03/27 10:35:58;;;;;;;5.80;5.30;;;10.50;99.90;;;;;;5025810;28;20244;-72
2024/03/27 10:38:29;;;;;;;6.23;5.67;;;10.40;99.90;;;;;;5032146;28;20214;-73
2024/03/27 10:41:05;;;;;;;6.23;5.63;;;10.30;99.90;;;;;;5011498;28;20187;-74
2024/03/27 10:43:39;;;;;;;6.40;5.80;;;10.40;99.90;;;;;;5023829;28;20199;-73
2024/03/27 10:46:05;;;;;;;6.80;6.10;;;10.40;99.90;;;;;;5028221;28;20207;-74
2024/03/27 10:48:32;;;;;;;8.30;7.40;;;10.40;99.90;;;;;;5016277;28;20180;-73
2024/03/27 10:50:58;;;;;;;5.80;5.30;;;10.30;99.90;;;;;;5025754;28;20672;-73
2024/03/27 10:53:26;;;;;;;5.83;5.33;;;10.20;99.90;;;;;;5026082;28;20179;-73
2024/03/27 10:55:53;;;;;;;6.33;5.83;;;10.20;99.90;;;;;;5027303;28;20186;-74
2024/03/27 10:58:19;;;;;;;5.97;5.40;;;10.10;99.90;;;;;;5032696;28;20180;-74
2024/03/27 11:00:46;;;;;;;7.47;5.93;;;10.00;99.90;;;;;;5025621;28;20551;-74
2024/03/27 11:03:14;;;;;;;6.30;5.80;;;10.00;99.90;;;;;;5027192;28;20179;-73
2024/03/27 11:05:47;;;;;;;5.40;4.90;;;10.00;99.90;;;;;;5023162;28;20369;-73
2024/03/27 11:08:16;;;;;;;5.30;4.90;;;10.00;99.90;;;;;;5033608;28;20241;-74
2024/03/27 11:10:41;;;;;;;4.50;4.20;;;9.90;99.90;;;;;;5033348;28;20175;-74
2024/03/27 11:13:09;;;;;;;4.47;4.10;;;9.80;99.90;;;;;;5033151;28;20202;-73
2024/03/27 11:15:41;;;;;;;6.43;5.83;;;9.70;99.90;;;;;;5032758;28;20176;-75
2024/03/27 11:18:14;;;;;;;5.13;4.67;;;9.70;99.90;;;;;;5033089;28;20179;-74
2024/03/27 11:20:50;;;;;;;12.80;9.50;;;9.80;99.90;;;;;;5031577;28;20195;-75
2024/03/27 11:23:15;;;;;;;4.70;4.30;;;10.00;99.90;;;;;;5033489;28;20175;-73
2024/03/27 11:25:52;;;;;;;4.93;4.53;;;9.90;99.90;;;;;;5024181;28;20269;-74
2024/03/27 11:28:19;;;;;;;4.67;4.27;;;10.00;99.90;;;;;;5033244;28;20179;-74
2024/03/27 11:30:45;;;;;;;4.70;4.30;;;10.00;99.90;;;;;;5030705;28;20708;-74
2024/03/27 11:33:16;;;;;;;11.33;7.47;;;10.00;99.90;;;;;;5019081;28;20581;-73
2024/03/27 11:35:42;;;;;;;5.87;5.30;;;10.00;99.90;;;;;;5032736;28;20645;-73
2024/03/27 11:38:09;;;;;;;7.67;6.33;;;10.00;99.90;;;;;;5024332;28;20218;-73
2024/03/27 11:40:35;;;;;;;5.53;5.03;;;10.10;99.90;;;;;;5032660;28;20221;-74
2024/03/27 11:43:02;;;;;;;5.30;4.90;;;10.20;99.90;;;;;;5033120;28;20199;-74
2024/03/27 11:45:28;;;;;;;5.27;4.87;;;10.30;99.90;;;;;;5033403;28;20172;-73
2024/03/27 11:47:56;;;;;;;5.70;5.20;;;10.40;99.90;;;;;;5032941;28;20191;-74
2024/03/27 11:50:22;;;;;;;4.60;4.30;;;10.40;99.90;;;;;;5033115;28;20203;-73
2024/03/27 11:52:48;;;;;;;4.47;4.07;;;10.20;99.90;;;;;;5020323;28;20280;-73
2024/03/27 11:55:15;;;;;;;4.83;4.50;;;10.10;99.90;;;;;;5033092;28;20636;-74
2024/03/27 11:57:41;;;;;;;5.30;4.80;;;10.00;99.90;;;;;;5032794;28;20190;-73
2024/03/27 12:00:10;;;;;;;5.67;5.10;;;10.00;99.90;;;;;;5032888;28;20187;-74
2024/03/27 12:02:36;;;;;;;6.03;5.53;;;10.00;99.90;;;;;;5029528;28;20209;-73
2024/03/27 12:05:04;;;;;;;5.20;4.80;;;9.90;99.90;;;;;;5026028;28;20322;-74
2024/03/27 12:07:31;;;;;;;6.10;5.60;;;9.90;99.90;;;;;;5032452;28;20299;-75
2024/03/27 12:10:00;;;;;;;6.00;5.60;;;9.80;99.90;;;;;;5032219;28;20639;-75
2024/03/27 12:12:32;;;;;;;5.87;5.37;;;9.70;99.90;;;;;;5032307;28;20211;-75
2024/03/27 12:14:58;;;;;;;6.37;5.87;;;9.60;99.90;;;;;;5028522;28;20267;-74
2024/03/27 12:17:55;;;;;;;6.03;5.43;;;9.70;99.90;;;;;;5028372;28;20687;-74
2024/03/27 12:20:20;;;;;;;6.10;5.60;;;9.70;99.90;;;;;;5008363;28;20646;-75
2024/03/27 12:22:46;;;;;;;6.03;5.53;;;9.60;99.90;;;;;;5029838;28;20284;-74
2024/03/27 12:25:12;;;;;;;5.40;4.90;;;9.60;99.90;;;;;;5016541;28;20561;-72
2024/03/27 12:27:37;;;;;;;4.90;4.60;;;9.50;99.90;;;;;;5026715;28;20199;-74
2024/03/27 12:30:03;;;;;;;4.90;4.60;;;9.50;99.90;;;;;;5032361;28;20179;-74
2024/03/27 12:32:29;;;;;;;4.73;4.43;;;9.40;99.90;;;;;;5024517;28;20767;-74
2024/03/27 12:34:56;;;;;;;5.33;4.93;;;9.40;99.90;;;;;;5023868;28;20176;-72
2024/03/27 12:37:21;;;;;;;5.47;5.07;;;9.40;99.90;;;;;;5025437;28;20557;-74
2024/03/27 12:39:48;;;;;;;5.00;4.70;;;9.50;99.90;;;;;;5020413;28;20185;-73
2024/03/27 12:42:14;;;;;;;4.80;4.30;;;9.50;99.90;;;;;;5032415;28;20204;-73
2024/03/27 12:44:40;;;;;;;5.10;4.60;;;9.60;99.90;;;;;;5031877;28;20257;-73